sensor_id;sensor_type;location;lat;lon;timestamp;pressure;altitude;pressure_sealevel;temperature;humidity
36062;BME280;22123;52.412;20.970;2023-02-12T00:00:42;101995.84;;;0.27;100.00
36062;BME280;22123;52.412;20.970;2023-02-12T00:03:09;101940.19;;;-0.12;100.00
36062;BME280;22123;52.412;20.970;2023-02-12T00:05:39;102009.09;;;0.27;100.00
36062;BME280;22123;52.412;20.970;2023-02-12T00:08:06;101891.69;;;-0.54;100.00
36062;BME280;22123;52.412;20.970;2023-02-12T00:10:32;101937.34;;;-0.28;100.00
36062;BME280;22123;52.412;20.970;2023-02-12T00:12:58;101821.03;;;-1.14;100.00
36062;BME280;22123;52.412;20.970;2023-02-12T00:15:23;101915.72;;;-0.59;100.00
36062;BME280;22123;52.412;20.970;2023-02-12T00:17:49;101975.09;;;-0.23;100.00
36062;BME280;22123;52.412;20.970;2023-02-12T00:20:15;101893.47;;;-0.75;100.00
36062;BME280;22123;52.412;20.970;2023-02-12T00:22:41;101910.59;;;-0.84;100.00
36062;BME280;22123;52.412;20.970;2023-02-12T00:25:07;101945.66;;;-0.58;100.00
36062;BME280;22123;52.412;20.970;2023-02-12T00:27:34;101937.84;;;-0.61;100.00
36062;BME280;22123;52.412;20.970;2023-02-12T00:30:00;102059.97;;;0.15;100.00
36062;BME280;22123;52.412;20.970;2023-02-12T00:32:26;102012.19;;;-0.25;100.00
36062;BME280;22123;52.412;20.970;2023-02-12T00:34:52;101895.84;;;-0.90;100.00
36062;BME280;22123;52.412;20.970;2023-02-12T00:37:18;101994.81;;;-0.30;100.00
36062;BME280;22123;52.412;20.970;2023-02-12T00:39:44;101934.19;;;-0.79;100.00
36062;BME280;22123;52.412;20.970;2023-02-12T00:42:10;102070.22;;;0.02;100.00
36062;BME280;22123;52.412;20.970;2023-02-12T00:44:36;101864.97;;;-1.33;100.00
36062;BME280;22123;52.412;20.970;2023-02-12T00:47:03;102073.91;;;-0.02;100.00
36062;BME280;22123;52.412;20.970;2023-02-12T00:49:30;101877.13;;;-1.29;100.00
36062;BME280;22123;52.412;20.970;2023-02-12T00:51:56;101996.06;;;-0.61;100.00
36062;BME280;22123;52.412;20.970;2023-02-12T00:54:22;101972.25;;;-0.83;100.00
36062;BME280;22123;52.412;20.970;2023-02-12T00:56:49;101951.59;;;-0.96;100.00
36062;BME280;22123;52.412;20.970;2023-02-12T00:59:17;101945.63;;;-1.01;100.00
36062;BME280;22123;52.412;20.970;2023-02-12T01:01:43;101995.22;;;-0.84;100.00
36062;BME280;22123;52.412;20.970;2023-02-12T01:04:09;101998.06;;;-0.90;100.00
36062;BME280;22123;52.412;20.970;2023-02-12T01:06:35;101881.44;;;-1.49;100.00
36062;BME280;22123;52.412;20.970;2023-02-12T01:09:01;102054.31;;;-0.41;100.00
36062;BME280;22123;52.412;20.970;2023-02-12T01:11:27;101842.41;;;-1.64;100.00
36062;BME280;22123;52.412;20.970;2023-02-12T01:13:53;102089.88;;;-0.26;100.00
36062;BME280;22123;52.412;20.970;2023-02-12T01:16:22;102107.84;;;-0.12;100.00
36062;BME280;22123;52.412;20.970;2023-02-12T01:18:50;102065.25;;;-0.50;100.00
36062;BME280;22123;52.412;20.970;2023-02-12T01:21:18;101963.94;;;-1.18;100.00
36062;BME280;22123;52.412;20.970;2023-02-12T01:23:45;102122.88;;;-0.12;100.00
36062;BME280;22123;52.412;20.970;2023-02-12T01:26:13;102065.81;;;-0.64;100.00
36062;BME280;22123;52.412;20.970;2023-02-12T01:28:40;102031.41;;;-0.86;100.00
36062;BME280;22123;52.412;20.970;2023-02-12T01:31:14;102131.00;;;-0.17;100.00
36062;BME280;22123;52.412;20.970;2023-02-12T01:33:41;102139.81;;;-0.16;100.00
36062;BME280;22123;52.412;20.970;2023-02-12T01:36:08;102016.09;;;-1.00;100.00
36062;BME280;22123;52.412;20.970;2023-02-12T01:38:34;102101.53;;;-0.52;100.00
36062;BME280;22123;52.412;20.970;2023-02-12T01:41:08;102105.72;;;-0.46;100.00
36062;BME280;22123;52.412;20.970;2023-02-12T01:43:35;102071.72;;;-0.79;100.00
36062;BME280;22123;52.412;20.970;2023-02-12T01:46:03;102153.16;;;-0.20;100.00
36062;BME280;22123;52.412;20.970;2023-02-12T01:48:41;102156.59;;;-0.18;100.00
36062;BME280;22123;52.412;20.970;2023-02-12T01:51:13;102053.47;;;-0.87;100.00
36062;BME280;22123;52.412;20.970;2023-02-12T01:53:48;102050.16;;;-0.92;100.00
36062;BME280;22123;52.412;20.970;2023-02-12T01:56:15;102052.63;;;-0.88;100.00
36062;BME280;22123;52.412;20.970;2023-02-12T01:58:44;102167.25;;;-0.19;100.00
36062;BME280;22123;52.412;20.970;2023-02-12T02:01:20;102049.31;;;-0.93;100.00
36062;BME280;22123;52.412;20.970;2023-02-12T02:03:50;101874.56;;;-2.00;100.00
36062;BME280;22123;52.412;20.970;2023-02-12T02:06:19;102071.19;;;-0.89;100.00
36062;BME280;22123;52.412;20.970;2023-02-12T02:08:47;102160.84;;;-0.36;100.00
36062;BME280;22123;52.412;20.970;2023-02-12T02:11:14;102100.63;;;-0.75;100.00
36062;BME280;22123;52.412;20.970;2023-02-12T02:13:40;102208.75;;;-0.20;100.00
36062;BME280;22123;52.412;20.970;2023-02-12T02:16:16;102206.09;;;-0.20;100.00
36062;BME280;22123;52.412;20.970;2023-02-12T02:19:02;102137.00;;;-0.58;100.00
36062;BME280;22123;52.412;20.970;2023-02-12T02:22:10;102210.56;;;-0.20;100.00
36062;BME280;22123;52.412;20.970;2023-02-12T02:40:55;102242.72;;;-0.31;100.00
36062;BME280;22123;52.412;20.970;2023-02-12T02:43:34;102135.09;;;-1.01;100.00
36062;BME280;22123;52.412;20.970;2023-02-12T02:46:15;102197.44;;;-0.71;100.00
36062;BME280;22123;52.412;20.970;2023-02-12T02:48:49;102255.59;;;-0.45;100.00
36062;BME280;22123;52.412;20.970;2023-02-12T02:51:24;102199.78;;;-0.86;100.00
36062;BME280;22123;52.412;20.970;2023-02-12T02:53:57;102316.03;;;-0.33;100.00
36062;BME280;22123;52.412;20.970;2023-02-12T02:56:26;102295.75;;;-0.34;100.00
36062;BME280;22123;52.412;20.970;2023-02-12T02:58:58;102304.50;;;-0.32;100.00
36062;BME280;22123;52.412;20.970;2023-02-12T03:01:54;102169.16;;;-1.17;100.00
36062;BME280;22123;52.412;20.970;2023-02-12T03:04:39;102312.50;;;-0.33;100.00
36062;BME280;22123;52.412;20.970;2023-02-12T03:07:27;102324.03;;;-0.34;100.00
36062;BME280;22123;52.412;20.970;2023-02-12T03:10:05;102292.34;;;-0.61;100.00
36062;BME280;22123;52.412;20.970;2023-02-12T03:12:40;102334.72;;;-0.38;100.00
36062;BME280;22123;52.412;20.970;2023-02-12T03:15:23;102156.00;;;-1.44;100.00
36062;BME280;22123;52.412;20.970;2023-02-12T03:17:52;102191.91;;;-1.38;100.00
36062;BME280;22123;52.412;20.970;2023-02-12T03:20:24;102246.09;;;-1.00;100.00
36062;BME280;22123;52.412;20.970;2023-02-12T03:23:03;102323.84;;;-0.55;100.00
36062;BME280;22123;52.412;20.970;2023-02-12T03:25:39;102306.06;;;-0.75;100.00
36062;BME280;22123;52.412;20.970;2023-02-12T03:37:04;102374.84;;;-0.50;100.00
36062;BME280;22123;52.412;20.970;2023-02-12T03:39:52;102378.41;;;-0.51;100.00
36062;BME280;22123;52.412;20.970;2023-02-12T03:44:55;102391.63;;;-0.51;100.00
36062;BME280;22123;52.412;20.970;2023-02-12T03:47:32;102266.75;;;-1.38;100.00
36062;BME280;22123;52.412;20.970;2023-02-12T03:50:23;102410.31;;;-0.56;100.00
36062;BME280;22123;52.412;20.970;2023-02-12T03:52:52;102251.44;;;-1.53;100.00
36062;BME280;22123;52.412;20.970;2023-02-12T03:55:18;102301.63;;;-1.27;100.00
36062;BME280;22123;52.412;20.970;2023-02-12T03:57:48;102412.28;;;-0.61;100.00
36062;BME280;22123;52.412;20.970;2023-02-12T04:00:20;102312.94;;;-1.21;100.00
36062;BME280;22123;52.412;20.970;2023-02-12T04:02:46;102363.41;;;-1.02;100.00
36062;BME280;22123;52.412;20.970;2023-02-12T04:05:18;102252.38;;;-1.84;100.00
36062;BME280;22123;52.412;20.970;2023-02-12T04:07:44;102074.19;;;-2.81;100.00
36062;BME280;22123;52.412;20.970;2023-02-12T04:10:11;102324.78;;;-1.35;100.00
36062;BME280;22123;52.412;20.970;2023-02-12T04:13:18;102398.13;;;-0.86;100.00
36062;BME280;22123;52.412;20.970;2023-02-12T04:16:11;102287.56;;;-1.55;100.00
36062;BME280;22123;52.412;20.970;2023-02-12T04:18:44;102248.69;;;-1.79;100.00
36062;BME280;22123;52.412;20.970;2023-02-12T04:26:45;102428.66;;;-0.76;100.00
36062;BME280;22123;52.412;20.970;2023-02-12T04:29:53;102371.81;;;-1.18;100.00
36062;BME280;22123;52.412;20.970;2023-02-12T04:32:35;102441.97;;;-0.79;100.00
36062;BME280;22123;52.412;20.970;2023-02-12T04:35:23;102444.72;;;-0.82;100.00
36062;BME280;22123;52.412;20.970;2023-02-12T04:38:10;102437.81;;;-0.86;100.00
36062;BME280;22123;52.412;20.970;2023-02-12T04:40:39;102438.75;;;-0.89;100.00
36062;BME280;22123;52.412;20.970;2023-02-12T04:43:06;102285.97;;;-1.88;100.00
36062;BME280;22123;52.412;20.970;2023-02-12T04:45:33;102445.00;;;-0.92;100.00
36062;BME280;22123;52.412;20.970;2023-02-12T04:48:00;102377.88;;;-1.43;100.00
36062;BME280;22123;52.412;20.970;2023-02-12T04:50:29;102317.34;;;-1.79;100.00
36062;BME280;22123;52.412;20.970;2023-02-12T04:53:00;102355.50;;;-1.59;100.00
36062;BME280;22123;52.412;20.970;2023-02-12T04:55:26;102059.34;;;-3.45;100.00
36062;BME280;22123;52.412;20.970;2023-02-12T04:57:52;102255.16;;;-2.47;100.00
36062;BME280;22123;52.412;20.970;2023-02-12T05:00:18;102385.50;;;-1.62;100.00
36062;BME280;22123;52.412;20.970;2023-02-12T05:02:44;102351.22;;;-1.93;100.00
36062;BME280;22123;52.412;20.970;2023-02-12T05:05:10;102401.25;;;-1.59;100.00
36062;BME280;22123;52.412;20.970;2023-02-12T05:07:36;102373.75;;;-1.81;100.00
36062;BME280;22123;52.412;20.970;2023-02-12T05:10:03;102369.56;;;-1.88;100.00
36062;BME280;22123;52.412;20.970;2023-02-12T05:12:29;102432.69;;;-1.49;100.00
36062;BME280;22123;52.412;20.970;2023-02-12T05:14:56;102404.09;;;-1.65;100.00
36062;BME280;22123;52.412;20.970;2023-02-12T05:17:22;102416.66;;;-1.73;100.00
36062;BME280;22123;52.412;20.970;2023-02-12T05:19:48;102378.41;;;-1.89;100.00
36062;BME280;22123;52.412;20.970;2023-02-12T05:22:14;102478.88;;;-1.33;100.00
36062;BME280;22123;52.412;20.970;2023-02-12T05:24:40;102515.78;;;-1.00;100.00
36062;BME280;22123;52.412;20.970;2023-02-12T05:27:06;102383.50;;;-1.83;100.00
36062;BME280;22123;52.412;20.970;2023-02-12T05:29:32;102441.69;;;-1.55;100.00
36062;BME280;22123;52.412;20.970;2023-02-12T05:31:57;102435.41;;;-1.52;100.00
36062;BME280;22123;52.412;20.970;2023-02-12T05:34:23;102378.66;;;-1.99;100.00
36062;BME280;22123;52.412;20.970;2023-02-12T05:36:49;102404.69;;;-1.85;100.00
36062;BME280;22123;52.412;20.970;2023-02-12T05:39:15;102368.28;;;-2.05;100.00
36062;BME280;22123;52.412;20.970;2023-02-12T05:41:42;102409.88;;;-1.82;100.00
36062;BME280;22123;52.412;20.970;2023-02-12T05:44:08;102411.81;;;-1.88;100.00
36062;BME280;22123;52.412;20.970;2023-02-12T05:46:34;102385.88;;;-2.04;100.00
36062;BME280;22123;52.412;20.970;2023-02-12T05:49:00;102490.69;;;-1.45;100.00
36062;BME280;22123;52.412;20.970;2023-02-12T05:51:26;102409.47;;;-1.99;100.00
36062;BME280;22123;52.412;20.970;2023-02-12T05:53:56;102569.91;;;-1.13;100.00
36062;BME280;22123;52.412;20.970;2023-02-12T05:56:25;102527.59;;;-1.42;100.00
36062;BME280;22123;52.412;20.970;2023-02-12T05:59:00;102566.75;;;-1.26;100.00
36062;BME280;22123;52.412;20.970;2023-02-12T06:01:38;102576.63;;;-1.31;100.00
36062;BME280;22123;52.412;20.970;2023-02-12T06:04:07;102575.16;;;-1.42;100.00
36062;BME280;22123;52.412;20.970;2023-02-12T06:06:35;102456.94;;;-2.31;100.00
36062;BME280;22123;52.412;20.970;2023-02-12T06:09:01;102587.25;;;-1.66;100.00
36062;BME280;22123;52.412;20.970;2023-02-12T06:11:27;102481.06;;;-2.45;100.00
36062;BME280;22123;52.412;20.970;2023-02-12T06:13:53;102509.03;;;-2.37;100.00
36062;BME280;22123;52.412;20.970;2023-02-12T06:16:21;102601.38;;;-2.01;100.00
36062;BME280;22123;52.412;20.970;2023-02-12T06:18:48;102600.84;;;-2.17;100.00
36062;BME280;22123;52.412;20.970;2023-02-12T06:21:15;102526.66;;;-2.77;100.00
36062;BME280;22123;52.412;20.970;2023-02-12T06:23:42;102306.81;;;-4.18;100.00
36062;BME280;22123;52.412;20.970;2023-02-12T06:26:08;102446.44;;;-3.43;100.00
36062;BME280;22123;52.412;20.970;2023-02-12T06:28:34;102611.59;;;-2.63;100.00
36062;BME280;22123;52.412;20.970;2023-02-12T06:31:00;102338.72;;;-4.37;100.00
36062;BME280;22123;52.412;20.970;2023-02-12T06:33:26;102559.22;;;-3.20;100.00
36062;BME280;22123;52.412;20.970;2023-02-12T06:35:52;102541.25;;;-3.43;100.00
36062;BME280;22123;52.412;20.970;2023-02-12T06:38:18;102577.69;;;-3.22;100.00
36062;BME280;22123;52.412;20.970;2023-02-12T06:40:44;102489.38;;;-3.82;100.00
36062;BME280;22123;52.412;20.970;2023-02-12T06:43:09;102473.03;;;-3.99;100.00
36062;BME280;22123;52.412;20.970;2023-02-12T06:45:35;102596.41;;;-3.34;100.00
36062;BME280;22123;52.412;20.970;2023-02-12T06:48:01;102547.66;;;-3.57;100.00
36062;BME280;22123;52.412;20.970;2023-02-12T06:50:28;102550.44;;;-3.63;100.00
36062;BME280;22123;52.412;20.970;2023-02-12T06:52:57;102540.75;;;-3.62;100.00
36062;BME280;22123;52.412;20.970;2023-02-12T06:55:23;102552.19;;;-3.63;100.00
36062;BME280;22123;52.412;20.970;2023-02-12T06:57:49;102599.00;;;-3.33;100.00
36062;BME280;22123;52.412;20.970;2023-02-12T07:00:15;102554.69;;;-3.56;100.00
36062;BME280;22123;52.412;20.970;2023-02-12T07:02:41;102558.97;;;-3.50;100.00
36062;BME280;22123;52.412;20.970;2023-02-12T07:05:07;102519.91;;;-3.73;100.00
36062;BME280;22123;52.412;20.970;2023-02-12T07:07:33;102433.88;;;-4.16;100.00
36062;BME280;22123;52.412;20.970;2023-02-12T07:09:59;102527.19;;;-3.42;100.00
36062;BME280;22123;52.412;20.970;2023-02-12T07:12:25;102509.75;;;-3.48;100.00
36062;BME280;22123;52.412;20.970;2023-02-12T07:14:51;102508.50;;;-3.30;100.00
36062;BME280;22123;52.412;20.970;2023-02-12T07:17:17;102481.66;;;-3.47;100.00
36062;BME280;22123;52.412;20.970;2023-02-12T07:19:42;102491.81;;;-3.30;100.00
36062;BME280;22123;52.412;20.970;2023-02-12T07:22:08;102609.44;;;-2.45;100.00
36062;BME280;22123;52.412;20.970;2023-02-12T07:24:34;102469.59;;;-3.17;100.00
36062;BME280;22123;52.412;20.970;2023-02-12T07:27:00;102401.00;;;-3.52;100.00
36062;BME280;22123;52.412;20.970;2023-02-12T07:29:26;102597.34;;;-2.18;100.00
36062;BME280;22123;52.412;20.970;2023-02-12T07:31:52;102561.38;;;-2.22;100.00
36062;BME280;22123;52.412;20.970;2023-02-12T07:34:17;102419.81;;;-2.92;100.00
36062;BME280;22123;52.412;20.970;2023-02-12T07:36:43;102649.31;;;-1.49;100.00
36062;BME280;22123;52.412;20.970;2023-02-12T07:39:11;102659.56;;;-1.37;100.00
36062;BME280;22123;52.412;20.970;2023-02-12T07:41:37;102484.19;;;-2.29;100.00
36062;BME280;22123;52.412;20.970;2023-02-12T07:44:07;102658.13;;;-1.16;100.00
36062;BME280;22123;52.412;20.970;2023-02-12T07:46:43;102641.53;;;-1.21;100.00
36062;BME280;22123;52.412;20.970;2023-02-12T07:49:17;102591.03;;;-1.43;100.00
36062;BME280;22123;52.412;20.970;2023-02-12T07:51:44;102621.84;;;-1.11;100.00
36062;BME280;22123;52.412;20.970;2023-02-12T07:54:10;102598.84;;;-1.07;100.00
36062;BME280;22123;52.412;20.970;2023-02-12T07:56:37;102658.28;;;-0.59;100.00
36062;BME280;22123;52.412;20.970;2023-02-12T07:59:07;102668.97;;;-0.34;100.00
36062;BME280;22123;52.412;20.970;2023-02-12T08:01:39;102642.78;;;-0.15;100.00
36062;BME280;22123;52.412;20.970;2023-02-12T08:04:07;102683.47;;;0.36;100.00
36062;BME280;22123;52.412;20.970;2023-02-12T08:06:36;102503.88;;;-0.58;100.00
36062;BME280;22123;52.412;20.970;2023-02-12T08:09:06;102581.06;;;-0.17;100.00
36062;BME280;22123;52.412;20.970;2023-02-12T08:11:32;102576.78;;;-0.21;100.00
36062;BME280;22123;52.412;20.970;2023-02-12T08:13:59;102698.81;;;0.53;100.00
36062;BME280;22123;52.412;20.970;2023-02-12T08:16:27;102688.59;;;0.67;100.00
36062;BME280;22123;52.412;20.970;2023-02-12T08:18:54;102702.25;;;0.82;100.00
36062;BME280;22123;52.412;20.970;2023-02-12T08:21:22;102468.56;;;-0.57;100.00
36062;BME280;22123;52.412;20.970;2023-02-12T08:23:49;102709.47;;;0.78;100.00
36062;BME280;22123;52.412;20.970;2023-02-12T08:26:16;102705.97;;;0.76;100.00
36062;BME280;22123;52.412;20.970;2023-02-12T08:28:46;102714.78;;;0.78;100.00
36062;BME280;22123;52.412;20.970;2023-02-12T08:31:17;102709.25;;;0.84;100.00
36062;BME280;22123;52.412;20.970;2023-02-12T08:33:44;102586.91;;;0.20;100.00
36062;BME280;22123;52.412;20.970;2023-02-12T08:36:13;102657.56;;;0.71;100.00
36062;BME280;22123;52.412;20.970;2023-02-12T08:38:40;102714.53;;;0.84;100.00
36062;BME280;22123;52.412;20.970;2023-02-12T08:41:17;102697.00;;;0.80;100.00
36062;BME280;22123;52.412;20.970;2023-02-12T08:43:44;102505.88;;;-0.38;100.00
36062;BME280;22123;52.412;20.970;2023-02-12T08:46:21;102683.19;;;0.71;100.00
36062;BME280;22123;52.412;20.970;2023-02-12T08:48:47;102548.97;;;-0.08;100.00
36062;BME280;22123;52.412;20.970;2023-02-12T08:51:16;102684.09;;;0.71;100.00
36062;BME280;22123;52.412;20.970;2023-02-12T08:53:44;102596.75;;;0.16;100.00
36062;BME280;22123;52.412;20.970;2023-02-12T08:56:12;102301.25;;;-1.69;100.00
36062;BME280;22123;52.412;20.970;2023-02-12T08:58:38;102579.38;;;-0.20;100.00
36062;BME280;22123;52.412;20.970;2023-02-12T09:01:09;102696.72;;;0.63;100.00
36062;BME280;22123;52.412;20.970;2023-02-12T09:03:35;102560.81;;;-0.18;100.00
36062;BME280;22123;52.412;20.970;2023-02-12T09:06:02;102532.28;;;-0.37;100.00
36062;BME280;22123;52.412;20.970;2023-02-12T09:08:29;102533.28;;;-0.41;100.00
36062;BME280;22123;52.412;20.970;2023-02-12T09:10:54;102592.88;;;-0.01;100.00
36062;BME280;22123;52.412;20.970;2023-02-12T09:13:20;102681.63;;;0.65;100.00
36062;BME280;22123;52.412;20.970;2023-02-12T09:15:46;102541.25;;;-0.14;100.00
36062;BME280;22123;52.412;20.970;2023-02-12T09:18:13;102613.41;;;0.45;100.00
36062;BME280;22123;52.412;20.970;2023-02-12T09:20:41;102616.88;;;0.47;100.00
36062;BME280;22123;52.412;20.970;2023-02-12T09:23:09;102722.06;;;1.22;100.00
36062;BME280;22123;52.412;20.970;2023-02-12T09:25:43;102736.41;;;1.16;100.00
36062;BME280;22123;52.412;20.970;2023-02-12T09:28:10;102735.75;;;1.10;100.00
36062;BME280;22123;52.412;20.970;2023-02-12T09:30:37;102735.91;;;1.05;100.00
36062;BME280;22123;52.412;20.970;2023-02-12T09:33:04;102736.94;;;1.01;100.00
36062;BME280;22123;52.412;20.970;2023-02-12T09:35:33;102710.88;;;0.89;100.00
36062;BME280;22123;52.412;20.970;2023-02-12T09:37:59;102609.41;;;0.33;100.00
36062;BME280;22123;52.412;20.970;2023-02-12T09:40:53;102699.69;;;1.04;100.00
36062;BME280;22123;52.412;20.970;2023-02-12T09:43:36;102734.66;;;1.41;100.00
36062;BME280;22123;52.412;20.970;2023-02-12T09:48:47;102542.34;;;0.31;100.00
36062;BME280;22123;52.412;20.970;2023-02-12T09:51:18;102657.13;;;1.07;100.00
36062;BME280;22123;52.412;20.970;2023-02-12T09:53:46;102670.25;;;1.12;100.00
36062;BME280;22123;52.412;20.970;2023-02-12T09:56:16;102623.13;;;0.95;100.00
36062;BME280;22123;52.412;20.970;2023-02-12T09:58:48;102723.38;;;1.58;100.00
36062;BME280;22123;52.412;20.970;2023-02-12T10:01:17;102697.50;;;1.41;100.00
36062;BME280;22123;52.412;20.970;2023-02-12T10:03:47;102534.41;;;0.31;100.00
36062;BME280;22123;52.412;20.970;2023-02-12T10:06:16;102693.47;;;1.29;100.00
36062;BME280;22123;52.412;20.970;2023-02-12T10:22:38;102621.75;;;1.54;100.00
36062;BME280;22123;52.412;20.970;2023-02-12T10:25:22;102536.16;;;1.03;100.00
36062;BME280;22123;52.412;20.970;2023-02-12T10:27:56;102731.91;;;2.34;100.00
36062;BME280;22123;52.412;20.970;2023-02-12T10:33:06;102717.69;;;2.35;100.00
36062;BME280;22123;52.412;20.970;2023-02-12T10:35:33;102626.69;;;1.85;100.00
36062;BME280;22123;52.412;20.970;2023-02-12T10:38:05;102555.44;;;1.52;100.00
36062;BME280;22123;52.412;20.970;2023-02-12T10:40:33;102566.72;;;1.58;100.00
36062;BME280;22123;52.412;20.970;2023-02-12T10:43:01;102654.78;;;2.13;100.00
36062;BME280;22123;52.412;20.970;2023-02-12T10:45:32;102711.00;;;2.67;100.00
36062;BME280;22123;52.412;20.970;2023-02-12T10:53:25;102659.63;;;2.67;100.00
36062;BME280;22123;52.412;20.970;2023-02-12T11:01:32;102722.56;;;3.85;100.00
36062;BME280;22123;52.412;20.970;2023-02-12T11:03:59;102719.03;;;4.04;100.00
36062;BME280;22123;52.412;20.970;2023-02-12T11:07:05;102722.97;;;4.85;100.00
36062;BME280;22123;52.412;20.970;2023-02-12T11:09:43;102527.09;;;3.86;100.00
36062;BME280;22123;52.412;20.970;2023-02-12T11:12:34;102723.38;;;5.29;100.00
36062;BME280;22123;52.412;20.970;2023-02-12T11:15:16;102683.94;;;5.66;100.00
36062;BME280;22123;52.412;20.970;2023-02-12T11:17:54;102723.81;;;6.49;100.00
36062;BME280;22123;52.412;20.970;2023-02-12T11:20:50;102683.13;;;7.17;100.00
36062;BME280;22123;52.412;20.970;2023-02-12T11:23:33;102569.28;;;6.95;100.00
36062;BME280;22123;52.412;20.970;2023-02-12T11:26:02;102670.34;;;7.49;100.00
36062;BME280;22123;52.412;20.970;2023-02-12T11:28:30;102610.94;;;7.28;100.00
36062;BME280;22123;52.412;20.970;2023-02-12T11:31:19;102623.25;;;7.45;100.00
36062;BME280;22123;52.412;20.970;2023-02-12T11:33:45;102666.84;;;7.49;100.00
36062;BME280;22123;52.412;20.970;2023-02-12T11:36:20;102647.38;;;7.45;100.00
36062;BME280;22123;52.412;20.970;2023-02-12T11:38:51;102532.16;;;7.04;100.00
36062;BME280;22123;52.412;20.970;2023-02-12T11:41:32;102687.09;;;7.95;100.00
36062;BME280;22123;52.412;20.970;2023-02-12T11:44:01;102681.69;;;8.09;100.00
36062;BME280;22123;52.412;20.970;2023-02-12T11:46:27;102680.09;;;8.19;100.00
36062;BME280;22123;52.412;20.970;2023-02-12T11:48:55;102556.34;;;7.17;100.00
36062;BME280;22123;52.412;20.970;2023-02-12T11:51:27;102511.94;;;6.56;100.00
36062;BME280;22123;52.412;20.970;2023-02-12T11:53:56;102689.44;;;7.87;100.00
36062;BME280;22123;52.412;20.970;2023-02-12T11:56:23;102614.19;;;7.48;100.00
36062;BME280;22123;52.412;20.970;2023-02-12T11:58:50;102687.50;;;8.16;100.00
36062;BME280;22123;52.412;20.970;2023-02-12T12:01:33;102694.28;;;7.94;100.00
36062;BME280;22123;52.412;20.970;2023-02-12T12:04:16;102562.00;;;6.97;100.00
36062;BME280;22123;52.412;20.970;2023-02-12T12:06:52;102686.53;;;7.62;100.00
36062;BME280;22123;52.412;20.970;2023-02-12T12:09:27;102663.47;;;7.31;100.00
36062;BME280;22123;52.412;20.970;2023-02-12T12:12:12;102677.75;;;7.31;100.00
36062;BME280;22123;52.412;20.970;2023-02-12T12:17:16;102437.50;;;5.30;100.00
36062;BME280;22123;52.412;20.970;2023-02-12T12:20:09;102660.00;;;6.26;100.00
36062;BME280;22123;52.412;20.970;2023-02-12T12:22:58;102500.72;;;4.82;100.00
36062;BME280;22123;52.412;20.970;2023-02-12T12:25:42;102537.75;;;4.88;100.00
36062;BME280;22123;52.412;20.970;2023-02-12T12:28:32;102658.66;;;5.23;100.00
36062;BME280;22123;52.412;20.970;2023-02-12T12:31:27;102656.31;;;5.17;100.00
36062;BME280;22123;52.412;20.970;2023-02-12T12:34:04;102663.44;;;5.17;100.00
36062;BME280;22123;52.412;20.970;2023-02-12T12:39:41;102662.84;;;5.12;100.00
36062;BME280;22123;52.412;20.970;2023-02-12T12:53:57;102654.16;;;4.91;100.00
36062;BME280;22123;52.412;20.970;2023-02-12T13:02:27;102510.66;;;4.13;100.00
36062;BME280;22123;52.412;20.970;2023-02-12T13:10:38;102586.03;;;4.83;100.00
36062;BME280;22123;52.412;20.970;2023-02-12T13:18:42;102624.88;;;4.89;100.00
36062;BME280;22123;52.412;20.970;2023-02-12T13:24:31;102640.78;;;4.75;100.00
36062;BME280;22123;52.412;20.970;2023-02-12T13:27:03;102562.16;;;4.13;100.00
36062;BME280;22123;52.412;20.970;2023-02-12T13:29:36;102643.22;;;4.62;100.00
36062;BME280;22123;52.412;20.970;2023-02-12T13:32:21;102643.00;;;4.66;100.00
36062;BME280;22123;52.412;20.970;2023-02-12T13:34:49;102561.66;;;4.23;100.00
36062;BME280;22123;52.412;20.970;2023-02-12T13:37:19;102404.81;;;3.29;100.00
36062;BME280;22123;52.412;20.970;2023-02-12T13:39:58;102576.97;;;4.19;100.00
36062;BME280;22123;52.412;20.970;2023-02-12T13:48:51;102635.31;;;4.43;100.00
36062;BME280;22123;52.412;20.970;2023-02-12T13:51:40;102635.88;;;4.32;100.00
36062;BME280;22123;52.412;20.970;2023-02-12T13:56:46;102534.50;;;3.44;100.00
36062;BME280;22123;52.412;20.970;2023-02-12T14:07:17;102521.38;;;3.03;100.00
36062;BME280;22123;52.412;20.970;2023-02-12T14:12:16;102551.75;;;2.99;100.00
36062;BME280;22123;52.412;20.970;2023-02-12T14:14:55;102652.41;;;3.48;100.00
36062;BME280;22123;52.412;20.970;2023-02-12T14:37:54;102638.31;;;2.46;100.00
36062;BME280;22123;52.412;20.970;2023-02-12T14:43:17;102430.06;;;1.03;100.00
36062;BME280;22123;52.412;20.970;2023-02-12T14:45:47;102554.69;;;1.71;100.00
36062;BME280;22123;52.412;20.970;2023-02-12T14:48:52;102647.69;;;2.14;100.00
36062;BME280;22123;52.412;20.970;2023-02-12T14:51:22;102632.47;;;1.95;100.00
36062;BME280;22123;52.412;20.970;2023-02-12T14:53:54;102576.91;;;1.46;100.00
36062;BME280;22123;52.412;20.970;2023-02-12T14:56:21;102654.13;;;1.86;100.00
36062;BME280;22123;52.412;20.970;2023-02-12T14:58:49;102589.50;;;1.41;100.00
36062;BME280;22123;52.412;20.970;2023-02-12T15:01:22;102559.72;;;1.11;100.00
36062;BME280;22123;52.412;20.970;2023-02-12T15:03:58;102632.72;;;1.45;100.00
36062;BME280;22123;52.412;20.970;2023-02-12T15:06:40;102663.28;;;1.55;100.00
36062;BME280;22123;52.412;20.970;2023-02-12T15:09:12;102520.03;;;0.62;100.00
36062;BME280;22123;52.412;20.970;2023-02-12T15:11:47;102575.88;;;0.81;100.00
36062;BME280;22123;52.412;20.970;2023-02-12T15:14:21;102593.41;;;0.85;100.00
36062;BME280;22123;52.412;20.970;2023-02-12T15:16:53;102670.75;;;1.21;100.00